Time;durP1;ratioP1;P1;durP2;ratioP2;P2;SDS_P1;SDS_P2;PMS_P1;PMS_P2;Temp;Humidity;BMP_temperature;BMP_pressure;BME280_temperature;BME280_humidity;BME280_pressure;Samples;Min_cycle;Max_cycle;Signal;HPM_P1;HPM_P2
2021/06/19 00:00:13;;;;;;;0.50;0.30;;;25.00;99.90;;;;;;5065229;28;20461;-83
2021/06/19 00:02:39;;;;;;;0.50;0.30;;;25.00;99.90;;;;;;5065001;28;20441;-84
2021/06/19 00:05:10;;;;;;;0.50;0.30;;;24.90;99.90;;;;;;5064117;28;20931;-82
2021/06/19 00:07:37;;;;;;;0.50;0.40;;;24.90;99.90;;;;;;5065303;28;20865;-82
2021/06/19 00:10:05;;;;;;;0.50;0.30;;;24.90;99.90;;;;;;5061254;28;20464;-83
2021/06/19 00:12:34;;;;;;;0.50;0.30;;;24.80;99.90;;;;;;5058696;28;20476;-84
2021/06/19 00:15:00;;;;;;;0.70;0.57;;;24.80;99.90;;;;;;5058631;28;20452;-85
2021/06/19 00:17:27;;;;;;;0.50;0.30;;;24.70;99.90;;;;;;5058499;28;20456;-83
2021/06/19 00:19:54;;;;;;;0.50;0.30;;;24.70;99.90;;;;;;5058583;28;21016;-84
2021/06/19 00:22:22;;;;;;;0.50;0.30;;;24.70;99.90;;;;;;5058450;28;20813;-84
2021/06/19 00:24:49;;;;;;;0.50;0.30;;;24.70;99.90;;;;;;5058197;28;20437;-84
2021/06/19 00:27:15;;;;;;;0.50;0.30;;;24.60;99.90;;;;;;5059136;28;20468;-85
2021/06/19 00:29:42;;;;;;;0.50;0.30;;;24.60;99.90;;;;;;5061955;28;20472;-84
2021/06/19 00:32:09;;;;;;;1.27;0.93;;;24.50;99.90;;;;;;5062972;28;21017;-83
2021/06/19 00:34:36;;;;;;;0.50;0.30;;;24.50;99.90;;;;;;5061744;28;20472;-84
2021/06/19 00:37:02;;;;;;;0.50;0.40;;;24.50;99.90;;;;;;5060046;28;20506;-84
2021/06/19 00:39:31;;;;;;;0.50;0.30;;;24.50;99.90;;;;;;5039666;28;20454;-83
2021/06/19 00:41:57;;;;;;;0.50;0.30;;;24.40;99.90;;;;;;5039485;28;20449;-84
2021/06/19 00:44:24;;;;;;;1.17;1.07;;;24.40;99.90;;;;;;5038774;28;20446;-84
2021/06/19 00:46:51;;;;;;;0.50;0.40;;;24.40;99.90;;;;;;5038334;28;20449;-84
2021/06/19 00:49:18;;;;;;;0.50;0.30;;;24.30;99.90;;;;;;5038109;28;20472;-84
2021/06/19 00:51:45;;;;;;;0.57;0.43;;;24.30;99.90;;;;;;5037612;28;20484;-84
2021/06/19 00:54:12;;;;;;;0.50;0.30;;;24.30;99.90;;;;;;5038518;28;20869;-83
2021/06/19 00:56:41;;;;;;;0.50;0.30;;;24.20;99.90;;;;;;5038314;28;20434;-83
2021/06/19 00:59:09;;;;;;;0.50;0.40;;;24.10;99.90;;;;;;5037947;28;20477;-84
2021/06/19 01:01:37;;;;;;;0.50;0.30;;;24.10;99.90;;;;;;5038092;28;20456;-84
2021/06/19 01:04:05;;;;;;;0.97;0.70;;;24.10;99.90;;;;;;5038129;28;20442;-83
2021/06/19 01:06:33;;;;;;;0.50;0.30;;;24.10;99.90;;;;;;5053105;28;20445;-83
2021/06/19 01:09:00;;;;;;;0.50;0.30;;;24.10;99.90;;;;;;5057526;28;20457;-83
2021/06/19 01:11:27;;;;;;;0.50;0.40;;;24.00;99.90;;;;;;5059837;28;20477;-82
2021/06/19 01:13:55;;;;;;;0.57;0.47;;;24.00;99.90;;;;;;5054368;28;20447;-83
2021/06/19 01:16:22;;;;;;;0.50;0.30;;;24.00;99.90;;;;;;5054556;28;20453;-81
2021/06/19 01:18:49;;;;;;;0.50;0.40;;;23.90;99.90;;;;;;5054654;28;20469;-81
2021/06/19 01:21:17;;;;;;;1.13;1.13;;;23.90;99.90;;;;;;5054307;28;20433;-81
2021/06/19 01:23:45;;;;;;;0.50;0.30;;;23.90;99.90;;;;;;5054254;28;20433;-82
2021/06/19 01:26:15;;;;;;;0.50;0.30;;;23.80;99.90;;;;;;5054843;28;20441;-82
2021/06/19 01:28:42;;;;;;;0.50;0.30;;;23.70;99.90;;;;;;5054262;28;20998;-83
2021/06/19 01:31:09;;;;;;;0.63;0.50;;;23.70;99.90;;;;;;5054955;28;20465;-82
2021/06/19 01:33:37;;;;;;;0.50;0.30;;;23.60;99.90;;;;;;5054598;28;20439;-82
2021/06/19 01:36:05;;;;;;;0.50;0.30;;;23.60;99.90;;;;;;5054616;28;20433;-82
2021/06/19 01:38:32;;;;;;;0.50;0.30;;;23.60;99.90;;;;;;5053928;28;20452;-83
2021/06/19 01:40:59;;;;;;;0.50;0.30;;;23.50;99.90;;;;;;5053911;28;20428;-82
2021/06/19 01:43:27;;;;;;;0.50;0.30;;;23.50;99.90;;;;;;5054041;28;20438;-82
2021/06/19 01:45:54;;;;;;;0.50;0.30;;;23.50;99.90;;;;;;5054244;28;20446;-82
2021/06/19 01:48:20;;;;;;;0.50;0.30;;;23.40;99.90;;;;;;5054035;28;20441;-82
2021/06/19 01:50:47;;;;;;;0.50;0.30;;;23.40;99.90;;;;;;5054016;28;20456;-82
2021/06/19 01:53:14;;;;;;;0.50;0.40;;;23.30;99.90;;;;;;5053743;28;20564;-82
2021/06/19 01:55:41;;;;;;;0.50;0.40;;;23.30;99.90;;;;;;5053712;28;20433;-82
2021/06/19 01:58:08;;;;;;;0.50;0.30;;;23.30;99.90;;;;;;5053847;28;20457;-82
2021/06/19 02:00:36;;;;;;;0.50;0.30;;;23.30;99.90;;;;;;5054073;28;20459;-82
2021/06/19 02:03:06;;;;;;;0.50;0.40;;;23.20;99.90;;;;;;5053681;28;20441;-82
2021/06/19 02:05:33;;;;;;;0.50;0.40;;;23.20;99.90;;;;;;5054022;28;20448;-79
2021/06/19 02:08:02;;;;;;;0.60;0.50;;;23.20;99.90;;;;;;5053446;28;20437;-81
2021/06/19 02:10:31;;;;;;;1.00;0.93;;;23.10;99.90;;;;;;5054183;28;20472;-81
2021/06/19 02:12:59;;;;;;;0.50;0.37;;;23.10;99.90;;;;;;5053502;28;20572;-82
2021/06/19 02:15:26;;;;;;;5.00;1.03;;;23.00;99.90;;;;;;5053855;28;20433;-82
2021/06/19 02:17:55;;;;;;;0.50;0.50;;;23.00;99.90;;;;;;5053323;28;20450;-81
2021/06/19 02:20:23;;;;;;;0.50;0.30;;;22.90;99.90;;;;;;5053906;28;20472;-82
2021/06/19 02:22:50;;;;;;;0.50;0.30;;;22.90;99.90;;;;;;5054181;28;20445;-82
2021/06/19 02:25:19;;;;;;;1.10;0.70;;;22.80;99.90;;;;;;5054489;28;20433;-82
2021/06/19 02:27:48;;;;;;;0.60;0.50;;;22.80;99.90;;;;;;5053482;28;20445;-82
2021/06/19 02:30:15;;;;;;;0.50;0.30;;;22.70;99.90;;;;;;5053837;28;20457;-82
2021/06/19 02:32:42;;;;;;;0.53;0.43;;;22.70;99.90;;;;;;5053871;28;20564;-82
2021/06/19 02:35:11;;;;;;;0.50;0.40;;;22.70;99.90;;;;;;5053614;28;20456;-82
2021/06/19 02:37:38;;;;;;;0.57;0.40;;;22.60;99.90;;;;;;5053448;28;20447;-81
2021/06/19 02:40:06;;;;;;;0.50;0.40;;;22.60;99.90;;;;;;5053938;28;20465;-82
2021/06/19 02:42:33;;;;;;;0.50;0.30;;;22.60;99.90;;;;;;5053363;28;20445;-81
2021/06/19 02:45:00;;;;;;;0.50;0.30;;;22.60;99.90;;;;;;5053928;28;20449;-84
2021/06/19 02:47:27;;;;;;;1.37;0.50;;;22.60;99.90;;;;;;5056035;28;20433;-82
2021/06/19 02:49:53;;;;;;;0.50;0.33;;;22.60;99.90;;;;;;5057182;28;20457;-82
2021/06/19 02:52:21;;;;;;;0.50;0.40;;;22.50;99.90;;;;;;5057498;28;20468;-82
2021/06/19 02:54:48;;;;;;;0.50;0.40;;;22.50;99.90;;;;;;5057414;28;20437;-82
2021/06/19 02:57:15;;;;;;;0.50;0.30;;;22.50;99.90;;;;;;5058059;28;20445;-80
2021/06/19 02:59:41;;;;;;;0.50;0.30;;;22.40;99.90;;;;;;5057906;28;20453;-79
2021/06/19 03:02:08;;;;;;;0.50;0.30;;;22.40;99.90;;;;;;5058576;28;20446;-80
2021/06/19 03:04:35;;;;;;;0.50;0.40;;;22.40;99.90;;;;;;5057472;28;20449;-80
2021/06/19 03:07:02;;;;;;;0.50;0.30;;;22.40;99.90;;;;;;5058667;28;20930;-80
2021/06/19 03:09:30;;;;;;;1.43;0.97;;;22.40;99.90;;;;;;5061413;28;20464;-80
2021/06/19 03:11:56;;;;;;;0.80;0.70;;;22.30;99.90;;;;;;5060727;28;20893;-80
2021/06/19 03:14:23;;;;;;;0.50;0.40;;;22.20;99.90;;;;;;5060080;28;20456;-80
2021/06/19 03:16:50;;;;;;;0.50;0.30;;;22.20;99.90;;;;;;5059406;28;20930;-82
2021/06/19 03:19:16;;;;;;;0.50;0.40;;;22.10;99.90;;;;;;5060773;28;20469;-80
2021/06/19 03:21:45;;;;;;;0.80;0.80;;;22.10;99.90;;;;;;5062391;28;20437;-81
2021/06/19 03:24:11;;;;;;;0.50;0.40;;;22.00;99.90;;;;;;5060119;28;20475;-79
2021/06/19 03:26:40;;;;;;;0.50;0.40;;;22.00;99.90;;;;;;5058587;28;20465;-80
2021/06/19 03:29:07;;;;;;;0.50;0.40;;;22.00;99.90;;;;;;5057665;28;20464;-81
2021/06/19 03:31:34;;;;;;;0.70;0.60;;;21.90;99.90;;;;;;5058281;28;20441;-80
2021/06/19 03:34:02;;;;;;;0.83;0.60;;;21.90;99.90;;;;;;5059403;28;20445;-80
2021/06/19 03:36:29;;;;;;;0.50;0.40;;;21.90;99.90;;;;;;5057394;28;20449;-79
2021/06/19 03:38:56;;;;;;;0.50;0.30;;;21.90;99.90;;;;;;5058741;28;20862;-80
2021/06/19 03:41:23;;;;;;;0.50;0.30;;;21.90;99.90;;;;;;5059278;28;20453;-80
2021/06/19 03:43:51;;;;;;;0.50;0.30;;;21.80;99.90;;;;;;5059642;28;20441;-80
2021/06/19 03:46:18;;;;;;;23.40;1.03;;;21.80;99.90;;;;;;5058240;28;20444;-79
2021/06/19 03:48:45;;;;;;;0.50;0.40;;;21.70;99.90;;;;;;5057308;28;20869;-79
2021/06/19 03:51:12;;;;;;;0.50;0.30;;;21.70;99.90;;;;;;5058048;28;20448;-80
2021/06/19 03:53:38;;;;;;;0.50;0.30;;;21.70;99.90;;;;;;5058344;28;20473;-80
2021/06/19 03:56:05;;;;;;;0.50;0.30;;;21.70;99.90;;;;;;5058689;28;20445;-80
2021/06/19 03:58:32;;;;;;;0.50;0.40;;;21.70;99.90;;;;;;5058999;28;20518;-81
2021/06/19 04:01:00;;;;;;;0.50;0.40;;;21.70;99.90;;;;;;5058204;28;20449;-81
2021/06/19 04:03:27;;;;;;;1.27;1.17;;;21.60;99.90;;;;;;5058700;28;20437;-81
2021/06/19 04:05:54;;;;;;;0.50;0.30;;;21.60;99.90;;;;;;5057097;28;20453;-80
2021/06/19 04:08:20;;;;;;;0.50;0.30;;;21.60;99.90;;;;;;5057746;28;20437;-80
2021/06/19 04:10:47;;;;;;;0.57;0.50;;;21.60;99.90;;;;;;5059022;28;20485;-83
2021/06/19 04:13:14;;;;;;;0.60;0.40;;;21.60;99.90;;;;;;5060424;28;20465;-79
2021/06/19 04:15:40;;;;;;;1.57;1.47;;;21.50;99.90;;;;;;5063348;28;20842;-80
2021/06/19 04:18:08;;;;;;;0.50;0.40;;;21.40;99.90;;;;;;5062635;28;20452;-81
2021/06/19 04:20:35;;;;;;;1.17;0.70;;;21.40;99.90;;;;;;5062531;28;20469;-81
2021/06/19 04:23:02;;;;;;;0.50;0.30;;;21.40;99.90;;;;;;5060546;28;20448;-81
2021/06/19 04:25:29;;;;;;;1.80;0.93;;;21.40;99.90;;;;;;5061948;28;20807;-81
2021/06/19 04:27:57;;;;;;;0.60;0.50;;;21.50;99.90;;;;;;5060860;28;20444;-81
2021/06/19 04:30:25;;;;;;;0.50;0.30;;;21.40;99.90;;;;;;5061241;28;20480;-82
2021/06/19 04:32:54;;;;;;;0.50;0.40;;;21.40;99.90;;;;;;5057592;28;20505;-81
2021/06/19 04:35:23;;;;;;;0.50;0.30;;;21.40;99.90;;;;;;5056844;28;20449;-81
2021/06/19 04:37:50;;;;;;;0.80;0.53;;;21.40;99.90;;;;;;5055627;28;20491;-80
2021/06/19 04:40:21;;;;;;;0.50;0.40;;;21.40;99.90;;;;;;5059935;28;20468;-82
2021/06/19 04:42:56;;;;;;;0.50;0.30;;;21.40;99.90;;;;;;5063514;28;20421;-81
2021/06/19 04:45:24;;;;;;;0.97;0.87;;;21.40;99.90;;;;;;5063407;28;20524;-82
2021/06/19 04:47:51;;;;;;;0.60;0.60;;;21.50;99.90;;;;;;5063852;28;20441;-80
2021/06/19 04:50:17;;;;;;;0.50;0.40;;;21.50;99.90;;;;;;5063787;28;20480;-81
2021/06/19 04:52:46;;;;;;;0.60;0.60;;;21.50;99.90;;;;;;5063756;28;20502;-80
2021/06/19 04:55:17;;;;;;;0.97;0.80;;;21.50;99.90;;;;;;5063695;28;20445;-81
2021/06/19 04:57:45;;;;;;;0.50;0.40;;;21.50;99.90;;;;;;5065342;28;20493;-79
2021/06/19 05:00:13;;;;;;;0.50;0.33;;;21.50;99.90;;;;;;5064356;28;20456;-81
2021/06/19 05:02:40;;;;;;;0.50;0.30;;;21.60;99.90;;;;;;5064145;28;20430;-81
2021/06/19 05:05:08;;;;;;;0.50;0.30;;;21.60;99.90;;;;;;5065059;28;20441;-81
2021/06/19 05:07:35;;;;;;;0.90;0.90;;;21.60;99.90;;;;;;5064733;28;20823;-82
2021/06/19 05:10:05;;;;;;;0.87;0.87;;;21.60;99.90;;;;;;5064561;28;20457;-80
2021/06/19 05:12:33;;;;;;;0.73;0.73;;;21.60;99.90;;;;;;5064384;28;20484;-81
2021/06/19 05:15:00;;;;;;;0.50;0.30;;;21.60;99.90;;;;;;5062914;28;20445;-82
2021/06/19 05:17:28;;;;;;;0.50;0.40;;;21.60;99.90;;;;;;5062766;28;20443;-81
2021/06/19 05:19:55;;;;;;;0.50;0.30;;;21.70;99.90;;;;;;5062046;28;20491;-83
2021/06/19 05:22:22;;;;;;;1.07;0.77;;;21.70;99.90;;;;;;5061610;28;20437;-83
2021/06/19 05:24:49;;;;;;;0.60;0.50;;;21.80;99.90;;;;;;5062620;28;20433;-81
2021/06/19 05:27:17;;;;;;;0.93;0.60;;;21.70;99.90;;;;;;5062345;28;20468;-81
2021/06/19 05:29:43;;;;;;;0.50;0.30;;;21.70;99.90;;;;;;5061807;28;20465;-82
2021/06/19 05:32:10;;;;;;;0.50;0.30;;;21.80;99.90;;;;;;5061456;28;20460;-81
2021/06/19 05:34:37;;;;;;;0.60;0.50;;;21.80;99.90;;;;;;5061368;28;20455;-81
2021/06/19 05:37:04;;;;;;;0.50;0.30;;;21.90;99.90;;;;;;5058304;28;20447;-82
2021/06/19 05:39:31;;;;;;;0.63;0.50;;;21.80;99.90;;;;;;5061817;28;20465;-84
2021/06/19 05:41:58;;;;;;;0.50;0.30;;;21.90;99.90;;;;;;5061737;28;20444;-81
2021/06/19 05:44:26;;;;;;;0.70;0.60;;;21.90;99.90;;;;;;5061460;28;20448;-81
2021/06/19 05:46:53;;;;;;;0.70;0.60;;;22.00;99.90;;;;;;5060009;28;20441;-81
2021/06/19 05:49:20;;;;;;;0.50;0.40;;;22.00;99.90;;;;;;5060986;28;20468;-82
2021/06/19 05:51:46;;;;;;;1.30;1.20;;;21.90;99.90;;;;;;5060457;28;20488;-82
2021/06/19 05:54:13;;;;;;;0.50;0.30;;;21.90;99.90;;;;;;5061338;28;20476;-81
2021/06/19 05:56:40;;;;;;;0.60;0.40;;;21.90;99.90;;;;;;5058374;28;20441;-81
2021/06/19 05:59:06;;;;;;;0.70;0.50;;;22.00;99.90;;;;;;5060144;28;20465;-80
2021/06/19 06:01:34;;;;;;;1.03;0.97;;;21.90;99.90;;;;;;5060272;28;20965;-81
2021/06/19 06:04:01;;;;;;;0.50;0.40;;;21.90;99.90;;;;;;5061231;28;20499;-81
2021/06/19 06:06:28;;;;;;;0.50;0.40;;;21.90;99.90;;;;;;5059709;28;20441;-82
2021/06/19 06:08:55;;;;;;;0.50;0.30;;;22.00;99.90;;;;;;5059236;28;20464;-81
2021/06/19 06:11:22;;;;;;;0.60;0.40;;;22.10;99.90;;;;;;5060526;28;20456;-81
2021/06/19 06:13:48;;;;;;;0.50;0.30;;;22.30;99.90;;;;;;5060771;28;20477;-80
2021/06/19 06:16:15;;;;;;;0.50;0.30;;;22.40;99.90;;;;;;5060442;28;20436;-83
2021/06/19 06:18:43;;;;;;;0.60;0.50;;;22.50;99.90;;;;;;5059913;28;20465;-81
2021/06/19 06:21:10;;;;;;;0.60;0.57;;;22.50;99.90;;;;;;5061674;28;21033;-81
2021/06/19 06:23:37;;;;;;;0.50;0.30;;;22.60;99.90;;;;;;5065601;28;20436;-81
2021/06/19 06:26:04;;;;;;;0.83;0.83;;;22.70;99.90;;;;;;5065795;28;21054;-80
2021/06/19 06:28:31;;;;;;;0.63;0.50;;;22.70;99.90;;;;;;5063861;28;20441;-81
2021/06/19 06:30:57;;;;;;;0.50;0.30;;;22.70;99.90;;;;;;5065578;28;20437;-81
2021/06/19 06:33:26;;;;;;;0.50;0.40;;;22.70;99.90;;;;;;5064385;28;20475;-81
2021/06/19 06:35:56;;;;;;;0.50;0.40;;;22.80;99.90;;;;;;5064084;28;20470;-81
2021/06/19 06:38:23;;;;;;;0.50;0.40;;;22.80;99.90;;;;;;5063850;28;20464;-82
2021/06/19 06:40:50;;;;;;;0.50;0.40;;;22.80;99.90;;;;;;5064561;28;20452;-80
2021/06/19 06:43:16;;;;;;;0.50;0.30;;;22.80;99.90;;;;;;5064041;28;20948;-80
2021/06/19 06:45:43;;;;;;;0.70;0.60;;;22.60;99.90;;;;;;5064911;28;20441;-82
2021/06/19 06:48:10;;;;;;;0.50;0.40;;;22.70;99.90;;;;;;5064195;28;20430;-81
2021/06/19 06:50:38;;;;;;;9.67;3.33;;;22.70;99.90;;;;;;5064509;28;20461;-81
2021/06/19 06:53:06;;;;;;;0.50;0.40;;;22.90;99.90;;;;;;5065184;28;20557;-80
2021/06/19 06:55:33;;;;;;;0.60;0.60;;;23.10;99.90;;;;;;5064763;28;20445;-82
2021/06/19 06:58:00;;;;;;;0.50;0.40;;;23.30;99.90;;;;;;5064499;28;20441;-82
2021/06/19 07:00:27;;;;;;;0.50;0.30;;;23.50;99.90;;;;;;5064156;28;20473;-79
2021/06/19 07:02:53;;;;;;;0.50;0.40;;;23.60;99.90;;;;;;5064710;28;20802;-81
2021/06/19 07:05:20;;;;;;;0.60;0.50;;;23.90;99.90;;;;;;5063767;28;20447;-80
2021/06/19 07:07:47;;;;;;;0.60;0.53;;;24.20;99.90;;;;;;5064232;28;20433;-80
2021/06/19 07:10:16;;;;;;;0.50;0.30;;;24.20;99.90;;;;;;5063085;28;20468;-80
2021/06/19 07:12:43;;;;;;;0.50;0.30;;;24.10;99.90;;;;;;5063525;28;20441;-82
2021/06/19 07:15:11;;;;;;;0.80;0.70;;;24.40;99.90;;;;;;5064444;28;20440;-81
2021/06/19 07:17:38;;;;;;;0.50;0.40;;;24.50;99.90;;;;;;5062929;28;20995;-77
2021/06/19 07:20:07;;;;;;;0.70;0.40;;;24.20;99.90;;;;;;5063720;28;20491;-80
2021/06/19 07:22:34;;;;;;;0.70;0.70;;;24.10;99.90;;;;;;5063007;28;20448;-81
2021/06/19 07:25:02;;;;;;;0.50;0.37;;;24.20;99.90;;;;;;5063970;28;20441;-80
2021/06/19 07:27:30;;;;;;;0.50;0.43;;;23.90;99.90;;;;;;5063221;28;20465;-81
2021/06/19 07:29:58;;;;;;;0.50;0.40;;;23.90;99.90;;;;;;5064303;28;20834;-82
2021/06/19 07:32:26;;;;;;;0.80;0.57;;;23.70;99.90;;;;;;5062727;28;20798;-81
2021/06/19 07:34:53;;;;;;;0.80;0.73;;;23.80;99.90;;;;;;5058477;28;20476;-81
2021/06/19 07:37:20;;;;;;;0.50;0.40;;;23.70;99.90;;;;;;5058902;28;20444;-79
2021/06/19 07:39:47;;;;;;;2.40;0.73;;;23.70;99.90;;;;;;5058059;28;20518;-79
2021/06/19 07:42:13;;;;;;;0.60;0.50;;;23.90;99.90;;;;;;5059246;28;20437;-79
2021/06/19 07:44:42;;;;;;;0.50;0.40;;;24.00;99.90;;;;;;5061861;28;20437;-80
2021/06/19 07:47:08;;;;;;;0.50;0.30;;;24.00;99.90;;;;;;5062158;28;20441;-82
2021/06/19 07:49:35;;;;;;;0.50;0.30;;;24.00;99.90;;;;;;5062319;28;20479;-83
2021/06/19 07:52:03;;;;;;;0.60;0.60;;;24.00;99.90;;;;;;5062884;28;20448;-82
2021/06/19 07:54:30;;;;;;;0.50;0.30;;;24.10;99.90;;;;;;5063011;28;20877;-80
2021/06/19 07:56:57;;;;;;;0.50;0.30;;;24.30;99.90;;;;;;5063730;28;20437;-81
2021/06/19 07:59:23;;;;;;;0.60;0.50;;;24.60;99.90;;;;;;5062931;28;20457;-82
2021/06/19 08:01:51;;;;;;;0.50;0.30;;;24.70;99.90;;;;;;5063796;28;20444;-82
2021/06/19 08:04:18;;;;;;;0.60;0.50;;;24.80;99.90;;;;;;5062238;28;20442;-81
2021/06/19 08:06:45;;;;;;;0.60;0.40;;;24.90;99.90;;;;;;5062891;28;20452;-82
2021/06/19 08:09:11;;;;;;;0.50;0.40;;;24.90;99.90;;;;;;5062307;28;20465;-82
2021/06/19 08:11:38;;;;;;;0.97;0.97;;;24.90;99.90;;;;;;5061937;28;20448;-81
2021/06/19 08:14:05;;;;;;;0.50;0.30;;;24.90;99.90;;;;;;5060300;28;20481;-81
2021/06/19 08:16:33;;;;;;;0.50;0.30;;;25.10;99.90;;;;;;5062022;28;20443;-82
2021/06/19 08:19:01;;;;;;;0.50;0.30;;;25.80;99.90;;;;;;5063127;28;20583;-79
2021/06/19 08:21:29;;;;;;;0.50;0.43;;;26.40;99.90;;;;;;5062231;28;20444;-82
2021/06/19 08:23:56;;;;;;;0.50;0.30;;;26.60;99.90;;;;;;5062745;28;20834;-81
2021/06/19 08:26:23;;;;;;;0.50;0.30;;;26.50;99.90;;;;;;5064108;28;20452;-81
2021/06/19 08:28:49;;;;;;;0.50;0.40;;;26.70;99.90;;;;;;5063737;28;20852;-81
2021/06/19 08:31:16;;;;;;;0.50;0.30;;;27.30;99.90;;;;;;5064880;28;20448;-80
2021/06/19 08:33:43;;;;;;;0.50;0.30;;;28.30;99.90;;;;;;5064377;28;20464;-82
2021/06/19 08:36:11;;;;;;;1.10;1.10;;;29.30;99.90;;;;;;5062392;28;20447;-81
2021/06/19 08:38:38;;;;;;;0.50;0.30;;;29.20;99.90;;;;;;5062280;28;20447;-80
2021/06/19 08:41:09;;;;;;;0.50;0.30;;;28.30;99.90;;;;;;5062429;28;20450;-81
2021/06/19 08:43:39;;;;;;;1.93;1.10;;;27.90;99.90;;;;;;5062043;28;20427;-81
2021/06/19 08:46:08;;;;;;;0.50;0.30;;;28.00;99.90;;;;;;5062501;28;20425;-81
2021/06/19 08:48:37;;;;;;;0.50;0.30;;;28.30;99.90;;;;;;5063384;28;20447;-82
2021/06/19 08:51:04;;;;;;;0.50;0.30;;;28.30;99.90;;;;;;5061735;28;20468;-83
2021/06/19 08:53:33;;;;;;;0.50;0.30;;;28.40;99.90;;;;;;5062721;28;20811;-83
2021/06/19 08:55:59;;;;;;;0.80;0.80;;;28.40;99.90;;;;;;5062931;28;20934;-81
2021/06/19 08:58:26;;;;;;;1.43;0.70;;;28.10;99.90;;;;;;5062311;28;20441;-80
2021/06/19 09:00:53;;;;;;;0.50;0.40;;;28.00;99.90;;;;;;5064330;28;20445;-82
2021/06/19 09:03:21;;;;;;;0.50;0.37;;;27.90;99.90;;;;;;5062496;28;20528;-80
2021/06/19 09:05:48;;;;;;;0.50;0.30;;;27.90;99.90;;;;;;5061444;28;20451;-81
2021/06/19 09:08:16;;;;;;;0.50;0.30;;;27.50;99.90;;;;;;5061099;28;20440;-81
2021/06/19 09:10:44;;;;;;;0.60;0.57;;;27.60;99.90;;;;;;5062185;28;20464;-82
2021/06/19 09:13:12;;;;;;;0.50;0.40;;;27.50;99.90;;;;;;5061018;28;20444;-80
2021/06/19 09:15:43;;;;;;;0.50;0.30;;;27.50;99.90;;;;;;5060935;28;20429;-80
2021/06/19 09:18:17;;;;;;;0.50;0.30;;;28.30;99.90;;;;;;5060950;28;20437;-81
2021/06/19 09:20:53;;;;;;;0.50;0.40;;;28.50;99.90;;;;;;5061291;28;20471;-80
2021/06/19 09:23:32;;;;;;;1.97;1.40;;;28.10;99.90;;;;;;5060632;28;20459;-79
2021/06/19 09:26:14;;;;;;;0.50;0.30;;;27.50;99.90;;;;;;5060645;28;20422;-80
2021/06/19 09:29:07;;;;;;;0.50;0.30;;;27.40;99.90;;;;;;5060300;28;20803;-80
2021/06/19 09:31:40;;;;;;;0.50;0.30;;;28.00;99.90;;;;;;5060726;28;21007;-80
2021/06/19 09:34:09;;;;;;;0.50;0.30;;;28.60;99.90;;;;;;5060625;28;20472;-81
2021/06/19 09:36:40;;;;;;;0.50;0.30;;;28.80;99.90;;;;;;5059283;28;20448;-81
2021/06/19 09:39:08;;;;;;;0.50;0.30;;;28.50;99.90;;;;;;5060275;28;20982;-81
2021/06/19 09:41:37;;;;;;;1.67;1.23;;;28.30;99.90;;;;;;5059710;28;20436;-80
2021/06/19 09:44:04;;;;;;;0.50;0.30;;;28.00;99.90;;;;;;5059536;28;20433;-78
2021/06/19 09:46:31;;;;;;;0.50;0.30;;;27.50;99.90;;;;;;5056257;28;20498;-77
2021/06/19 09:49:14;;;;;;;0.60;0.40;;;27.10;99.90;;;;;;5057301;28;20505;-80
2021/06/19 09:51:49;;;;;;;0.50;0.50;;;26.80;99.90;;;;;;5059324;28;20432;-80
2021/06/19 09:54:16;;;;;;;0.50;0.30;;;26.70;99.90;;;;;;5059260;28;20467;-80
2021/06/19 09:56:52;;;;;;;0.50;0.40;;;26.70;99.90;;;;;;5063802;28;20455;-80
2021/06/19 09:59:29;;;;;;;1.30;1.20;;;26.90;99.90;;;;;;5062074;28;20468;-79
2021/06/19 10:01:56;;;;;;;0.60;0.60;;;27.00;99.90;;;;;;5062378;28;20452;-80
2021/06/19 10:04:24;;;;;;;0.50;0.30;;;27.70;99.90;;;;;;5061693;28;20434;-79
2021/06/19 10:06:52;;;;;;;0.50;0.40;;;28.10;99.90;;;;;;5062537;28;20966;-80
2021/06/19 10:09:19;;;;;;;0.50;0.40;;;28.10;99.90;;;;;;5063067;28;20468;-80
2021/06/19 10:11:48;;;;;;;0.50;0.30;;;28.40;99.90;;;;;;5063251;28;20443;-80
2021/06/19 10:14:19;;;;;;;0.70;0.60;;;28.90;99.90;;;;;;5062983;28;20480;-82
2021/06/19 10:16:48;;;;;;;0.50;0.30;;;28.90;99.90;;;;;;5061414;28;20480;-82
2021/06/19 10:19:18;;;;;;;0.50;0.30;;;28.60;99.90;;;;;;5062580;28;20469;-82
2021/06/19 10:21:45;;;;;;;0.50;0.30;;;28.90;99.90;;;;;;5063961;28;20843;-82
2021/06/19 10:24:12;;;;;;;0.50;0.30;;;29.30;99.90;;;;;;5063658;28;20505;-81
2021/06/19 10:26:40;;;;;;;0.50;0.30;;;29.40;99.90;;;;;;5061111;28;20448;-81
2021/06/19 10:29:08;;;;;;;0.50;0.40;;;29.20;99.90;;;;;;5061018;28;20457;-81
2021/06/19 10:31:41;;;;;;;0.50;0.30;;;28.90;99.90;;;;;;5061429;28;20436;-80
2021/06/19 10:34:27;;;;;;;0.50;0.30;;;28.70;99.90;;;;;;5060660;28;20579;-81
2021/06/19 10:36:56;;;;;;;0.50;0.30;;;28.90;99.90;;;;;;5062692;28;20437;-81
2021/06/19 10:39:45;;;;;;;0.63;0.57;;;29.30;99.90;;;;;;5060718;28;20977;-80
2021/06/19 10:42:28;;;;;;;0.50;0.30;;;29.70;99.90;;;;;;5058216;28;20445;-81
2021/06/19 10:44:59;;;;;;;0.50;0.30;;;29.80;99.90;;;;;;5061435;28;20433;-81
2021/06/19 10:47:29;;;;;;;0.50;0.30;;;29.80;99.90;;;;;;5061648;28;20445;-80
2021/06/19 10:49:57;;;;;;;0.60;0.57;;;29.90;99.90;;;;;;5062335;28;20976;-81
2021/06/19 10:52:29;;;;;;;0.50;0.30;;;29.90;99.90;;;;;;5061063;28;20436;-81
2021/06/19 10:55:26;;;;;;;0.50;0.30;;;29.60;99.90;;;;;;5060979;28;20484;-81
2021/06/19 10:57:55;;;;;;;0.50;0.30;;;30.00;99.90;;;;;;5062399;28;20437;-81
2021/06/19 11:00:43;;;;;;;0.50;0.30;;;30.00;99.90;;;;;;5061989;28;20468;-81
2021/06/19 11:03:11;;;;;;;0.50;0.30;;;29.90;99.90;;;;;;5062345;28;20427;-79
2021/06/19 11:05:57;;;;;;;0.50;0.30;;;29.60;99.90;;;;;;5062257;28;20444;-80
2021/06/19 11:08:24;;;;;;;0.50;0.30;;;29.20;99.90;;;;;;5059695;28;20794;-80
2021/06/19 11:10:58;;;;;;;0.50;0.30;;;29.10;99.90;;;;;;5061329;28;20465;-80
2021/06/19 11:13:45;;;;;;;0.50;0.40;;;29.00;99.90;;;;;;5061645;28;20422;-81
2021/06/19 11:16:54;;;;;;;0.50;0.40;;;29.00;99.90;;;;;;5061540;28;20479;-80
2021/06/19 11:19:44;;;;;;;0.67;0.67;;;28.90;99.90;;;;;;5040499;28;20560;-80
2021/06/19 11:22:32;;;;;;;0.50;0.30;;;29.20;99.90;;;;;;5061559;28;20441;-83
2021/06/19 11:25:35;;;;;;;0.50;0.30;;;29.30;99.90;;;;;;5062086;28;20803;-80
2021/06/19 11:28:04;;;;;;;0.50;0.30;;;29.40;99.90;;;;;;5057248;28;20543;-81
2021/06/19 11:30:51;;;;;;;0.50;0.30;;;29.40;99.90;;;;;;5060764;28;20453;-81
2021/06/19 11:33:44;;;;;;;0.50;0.30;;;29.60;99.90;;;;;;5060690;28;20491;-81
2021/06/19 11:36:32;;;;;;;0.50;0.30;;;29.90;99.90;;;;;;5061920;28;20461;-82
2021/06/19 11:39:11;;;;;;;0.50;0.30;;;30.10;99.90;;;;;;5061284;28;20457;-78
2021/06/19 11:41:42;;;;;;;0.50;0.30;;;30.20;99.90;;;;;;5060812;28;20430;-80
2021/06/19 11:44:11;;;;;;;0.50;0.30;;;30.20;99.90;;;;;;5060821;28;20448;-81
2021/06/19 11:46:38;;;;;;;0.50;0.30;;;30.40;99.90;;;;;;5060870;28;20850;-79
2021/06/19 11:49:09;;;;;;;0.50;0.30;;;30.50;99.90;;;;;;5061486;28;20570;-81
2021/06/19 11:51:37;;;;;;;0.50;0.40;;;30.80;97.50;;;;;;5060747;28;20449;-81
2021/06/19 11:54:06;;;;;;;0.50;0.30;;;31.00;97.50;;;;;;5060482;28;20441;-81
2021/06/19 11:56:32;;;;;;;0.47;0.30;;;31.10;98.10;;;;;;5059961;28;20448;-81
2021/06/19 11:59:01;;;;;;;0.50;0.30;;;31.30;99.40;;;;;;5060642;28;20465;-82
2021/06/19 12:01:31;;;;;;;0.40;0.30;;;31.10;98.10;;;;;;5060339;28;20442;-80
2021/06/19 12:04:01;;;;;;;0.50;0.30;;;31.70;95.70;;;;;;5059521;28;20453;-82
2021/06/19 12:06:32;;;;;;;0.50;0.40;;;32.10;94.70;;;;;;5059167;28;20468;-81
2021/06/19 12:09:00;;;;;;;0.50;0.50;;;32.20;94.20;;;;;;5060877;28;20461;-81
2021/06/19 12:11:28;;;;;;;0.50;0.30;;;31.50;94.00;;;;;;5060892;28;20436;-81
2021/06/19 12:13:55;;;;;;;0.50;0.30;;;31.50;95.70;;;;;;5062454;28;20430;-81
2021/06/19 12:16:30;;;;;;;0.50;0.30;;;31.70;95.10;;;;;;5066347;28;20472;-82
2021/06/19 12:19:01;;;;;;;0.50;0.30;;;32.10;94.90;;;;;;5064821;28;20474;-83
2021/06/19 12:21:33;;;;;;;0.50;0.30;;;32.50;93.40;;;;;;5065296;28;20441;-82
2021/06/19 12:24:02;;;;;;;0.50;0.30;;;33.00;93.20;;;;;;5065022;28;20441;-82
2021/06/19 12:26:29;;;;;;;0.40;0.30;;;33.80;90.90;;;;;;5064149;28;20433;-81
2021/06/19 12:28:56;;;;;;;0.40;0.30;;;34.50;91.40;;;;;;5063848;28;20464;-83
2021/06/19 12:31:25;;;;;;;0.40;0.30;;;34.80;86.50;;;;;;5064591;28;20441;-82
2021/06/19 12:33:57;;;;;;;0.50;0.30;;;35.40;82.40;;;;;;5063959;28;20464;-83
2021/06/19 12:36:24;;;;;;;0.40;0.30;;;35.80;79.20;;;;;;5064400;28;21101;-79
2021/06/19 12:38:52;;;;;;;0.40;0.30;;;36.10;78.00;;;;;;5064226;28;20468;-82
2021/06/19 12:41:22;;;;;;;0.40;0.30;;;36.50;81.40;;;;;;5064108;28;20445;-82
2021/06/19 12:43:50;;;;;;;0.40;0.30;;;35.70;74.70;;;;;;5064072;28;20938;-82
2021/06/19 12:46:18;;;;;;;0.40;0.30;;;35.60;78.40;;;;;;5064107;28;20441;-82
2021/06/19 12:48:45;;;;;;;0.40;0.30;;;34.60;77.30;;;;;;5063073;28;20441;-83
2021/06/19 12:51:24;;;;;;;0.40;0.30;;;34.00;84.80;;;;;;5063277;28;20441;-81
2021/06/19 12:53:50;;;;;;;0.40;0.40;;;33.60;81.60;;;;;;5063160;28;20448;-82
2021/06/19 12:56:17;;;;;;;0.50;0.30;;;33.80;80.80;;;;;;5063955;28;20484;-82